Time;durP1;ratioP1;P1;durP2;ratioP2;P2;SDS_P1;SDS_P2;PMS_P1;PMS_P2;Temp;Humidity;BMP_temperature;BMP_pressure;BME280_temperature;BME280_humidity;BME280_pressure;Samples;Min_cycle;Max_cycle;Signal;HPM_P1;HPM_P2
2023/08/01 00:01:37;;;;;;;1.10;1.10;;;;;16.40;95085.00;;;;5033734;28;20204;-58
2023/08/01 00:04:05;;;;;;;1.53;1.43;;;;;16.40;95088.00;;;;5033699;28;20223;-58
2023/08/01 00:06:32;;;;;;;1.03;1.03;;;;;16.50;95073.00;;;;5033653;28;20225;-58
2023/08/01 00:08:59;;;;;;;1.63;1.30;;;;;16.40;95077.00;;;;5034091;28;20196;-58
2023/08/01 00:11:27;;;;;;;1.00;1.00;;;;;16.60;95078.00;;;;5033833;28;20219;-58
2023/08/01 00:13:56;;;;;;;1.37;1.37;;;;;16.60;95075.00;;;;5033325;28;20184;-57
2023/08/01 00:16:23;;;;;;;0.63;0.63;;;;;16.80;95067.00;;;;5033681;28;20215;-57
2023/08/01 00:18:50;;;;;;;0.90;0.90;;;;;16.70;95048.00;;;;5033502;28;20244;-58
2023/08/01 00:21:18;;;;;;;0.73;0.73;;;;;16.60;95051.00;;;;5033663;28;20212;-58
2023/08/01 00:23:45;;;;;;;0.60;0.60;;;;;16.60;95056.00;;;;5033728;28;20616;-58
2023/08/01 00:26:13;;;;;;;1.43;1.33;;;;;16.70;95040.00;;;;5033326;28;20217;-58
2023/08/01 00:28:40;;;;;;;1.17;1.17;;;;;16.60;95044.00;;;;5033468;28;20193;-58
2023/08/01 00:31:10;;;;;;;0.90;0.90;;;;;16.60;95048.00;;;;5033312;28;20193;-58
2023/08/01 00:33:37;;;;;;;0.60;0.60;;;;;16.60;95048.00;;;;5033296;28;20189;-58
2023/08/01 00:36:08;;;;;;;1.13;1.03;;;;;16.50;95040.00;;;;5031924;28;20307;-58
2023/08/01 00:38:36;;;;;;;1.00;1.00;;;;;16.60;95043.00;;;;5033174;28;20185;-58
2023/08/01 00:41:04;;;;;;;1.20;1.20;;;;;16.60;95032.00;;;;5033368;28;20582;-58
2023/08/01 00:43:31;;;;;;;1.80;1.33;;;;;16.60;95029.00;;;;5033159;28;20660;-58
2023/08/01 00:46:01;;;;;;;2.73;1.33;;;;;16.50;95033.00;;;;5033575;28;20223;-58
2023/08/01 00:48:31;;;;;;;0.70;0.70;;;;;16.60;95031.00;;;;5033622;28;20180;-58
2023/08/01 00:51:00;;;;;;;2.47;1.03;;;;;16.50;95026.00;;;;5033147;28;20200;-58
2023/08/01 00:53:28;;;;;;;0.70;0.70;;;;;16.50;95030.00;;;;5033263;28;20188;-58
2023/08/01 00:55:56;;;;;;;0.60;0.60;;;;;16.70;95022.00;;;;5033007;28;20296;-58
2023/08/01 00:58:23;;;;;;;0.60;0.60;;;;;16.70;95019.00;;;;5033023;28;20219;-60
2023/08/01 01:00:51;;;;;;;1.30;1.23;;;;;16.70;95022.00;;;;5033059;28;20199;-58
2023/08/01 01:03:19;;;;;;;0.73;0.73;;;;;16.80;95023.00;;;;5031752;28;20200;-58
2023/08/01 01:05:54;;;;;;;0.60;0.60;;;;;16.70;95021.00;;;;5032799;28;20278;-58
2023/08/01 01:08:22;;;;;;;1.13;1.03;;;;;16.60;95032.00;;;;5033545;28;20176;-58
2023/08/01 01:10:49;;;;;;;0.83;0.83;;;;;16.60;95009.00;;;;5032974;28;20200;-58
2023/08/01 01:13:16;;;;;;;0.80;0.80;;;;;16.50;95011.00;;;;5033195;28;20553;-58
2023/08/01 01:15:44;;;;;;;1.00;0.93;;;;;16.60;95000.00;;;;5032902;28;20193;-58
2023/08/01 01:18:11;;;;;;;0.97;0.97;;;;;16.70;94993.00;;;;5032988;28;20203;-58
2023/08/01 01:20:40;;;;;;;1.00;1.00;;;;;16.60;94992.00;;;;5032641;28;20189;-58
2023/08/01 01:23:09;;;;;;;1.13;1.13;;;;;16.50;94978.00;;;;5032961;28;20227;-58
2023/08/01 01:25:37;;;;;;;1.37;1.27;;;;;16.40;94974.00;;;;5031950;28;20223;-58
2023/08/01 01:28:05;;;;;;;0.50;0.50;;;;;16.40;94969.00;;;;5036440;28;20200;-58
2023/08/01 01:30:34;;;;;;;0.90;0.90;;;;;16.30;94971.00;;;;5036838;28;20207;-59
2023/08/01 01:33:03;;;;;;;0.77;0.77;;;;;16.20;94953.00;;;;5036942;28;20247;-58
2023/08/01 01:35:31;;;;;;;1.07;1.03;;;;;16.30;94958.00;;;;5034938;28;20189;-58
2023/08/01 01:38:03;;;;;;;1.03;1.03;;;;;16.30;94952.00;;;;5036771;28;20613;-58
2023/08/01 01:40:31;;;;;;;0.70;0.70;;;;;16.20;94936.00;;;;5036477;28;20187;-58
2023/08/01 01:42:59;;;;;;;1.40;1.40;;;;;16.30;94950.00;;;;5036400;28;20228;-58
2023/08/01 01:45:27;;;;;;;1.27;1.27;;;;;16.30;94946.00;;;;5036586;28;20208;-58
2023/08/01 01:47:55;;;;;;;0.80;0.80;;;;;16.30;94937.00;;;;5035003;28;20201;-58
2023/08/01 01:50:22;;;;;;;0.90;0.90;;;;;16.20;94927.00;;;;5035030;28;20197;-58
2023/08/01 01:52:49;;;;;;;0.70;0.70;;;;;16.20;94921.00;;;;5036454;28;20648;-58
2023/08/01 01:55:18;;;;;;;0.83;0.83;;;;;16.30;94924.00;;;;5036648;28;20192;-58
2023/08/01 01:57:46;;;;;;;0.83;0.83;;;;;16.40;94921.00;;;;5035982;28;20312;-59
2023/08/01 02:00:14;;;;;;;0.70;0.70;;;;;16.30;94919.00;;;;5036012;28;20663;-58
2023/08/01 02:02:41;;;;;;;0.90;0.90;;;;;16.20;94911.00;;;;5035980;28;20199;-59
2023/08/01 02:05:09;;;;;;;0.70;0.70;;;;;16.30;94911.00;;;;5035909;28;20687;-58
2023/08/01 02:07:36;;;;;;;0.70;0.70;;;;;16.30;94911.00;;;;5034728;28;20576;-57
2023/08/01 02:10:04;;;;;;;0.90;0.90;;;;;16.30;94910.00;;;;5036037;28;20196;-57
2023/08/01 02:12:35;;;;;;;0.77;0.77;;;;;16.30;94923.00;;;;5036118;28;20546;-57
2023/08/01 02:15:02;;;;;;;0.67;0.67;;;;;16.40;94913.00;;;;5036242;28;20329;-57
2023/08/01 02:17:30;;;;;;;0.60;0.60;;;;;16.30;94912.00;;;;5035922;28;20331;-57
2023/08/01 02:19:58;;;;;;;0.60;0.60;;;;;16.40;94912.00;;;;5035491;28;20552;-57
2023/08/01 02:22:27;;;;;;;0.70;0.70;;;;;16.30;94912.00;;;;5036084;28;20201;-57
2023/08/01 02:24:54;;;;;;;0.90;0.90;;;;;16.30;94909.00;;;;5034172;28;20221;-57
2023/08/01 02:27:21;;;;;;;0.73;0.73;;;;;16.30;94914.00;;;;5035438;28;20215;-57
2023/08/01 02:29:50;;;;;;;0.80;0.80;;;;;16.30;94910.00;;;;5035799;28;20604;-57
2023/08/01 02:32:18;;;;;;;0.93;0.93;;;;;16.40;94915.00;;;;5033983;28;20291;-57
2023/08/01 02:34:45;;;;;;;0.60;0.60;;;;;16.50;94919.00;;;;5035345;28;20659;-57
2023/08/01 02:37:13;;;;;;;0.90;0.90;;;;;16.50;94917.00;;;;5035258;28;20692;-57
2023/08/01 02:39:40;;;;;;;2.60;1.17;;;;;16.40;94903.00;;;;5035448;28;20247;-58
2023/08/01 02:42:08;;;;;;;1.20;1.20;;;;;16.40;94891.00;;;;5035126;28;20196;-57
2023/08/01 02:44:35;;;;;;;1.10;1.00;;;;;16.40;94885.00;;;;5035044;28;20223;-57
2023/08/01 02:47:05;;;;;;;1.37;1.37;;;;;16.70;94896.00;;;;5035106;28;20579;-57
2023/08/01 02:49:33;;;;;;;1.80;1.23;;;;;16.60;94885.00;;;;5035269;28;20192;-57
2023/08/01 02:52:00;;;;;;;0.80;0.80;;;;;16.70;94893.00;;;;5035147;28;20197;-57
2023/08/01 02:54:28;;;;;;;0.93;0.93;;;;;16.70;94891.00;;;;5035586;28;20254;-57
2023/08/01 02:56:56;;;;;;;0.83;0.83;;;;;16.70;94884.00;;;;5035041;28;20591;-57
2023/08/01 02:59:23;;;;;;;1.63;1.53;;;;;16.60;94898.00;;;;5034969;28;20185;-57
2023/08/01 03:01:51;;;;;;;1.23;1.23;;;;;16.60;94903.00;;;;5035158;28;20220;-57
2023/08/01 03:04:20;;;;;;;1.03;1.03;;;;;16.70;94894.00;;;;5034580;28;20196;-57
2023/08/01 03:06:47;;;;;;;0.87;0.87;;;;;16.50;94879.00;;;;5034767;28;20239;-57
2023/08/01 03:09:15;;;;;;;0.77;0.77;;;;;16.60;94891.00;;;;5033619;28;20262;-57
2023/08/01 03:11:43;;;;;;;1.27;1.17;;;;;16.60;94883.00;;;;5034581;28;20584;-57
2023/08/01 03:14:10;;;;;;;0.77;0.77;;;;;16.70;94890.00;;;;5034887;28;20200;-57
2023/08/01 03:16:38;;;;;;;0.60;0.60;;;;;16.70;94890.00;;;;5034588;28;20695;-57
2023/08/01 03:19:05;;;;;;;0.83;0.83;;;;;16.80;94901.00;;;;5034770;28;20243;-57
2023/08/01 03:21:35;;;;;;;1.00;1.00;;;;;16.70;94898.00;;;;5034523;28;20673;-57
2023/08/01 03:24:05;;;;;;;0.70;0.70;;;;;16.60;94898.00;;;;5034589;28;20200;-57
2023/08/01 03:26:33;;;;;;;0.90;0.90;;;;;16.70;94902.00;;;;5034456;28;20711;-57
2023/08/01 03:29:00;;;;;;;3.13;1.53;;;;;16.60;94904.00;;;;5032926;28;20287;-58
2023/08/01 03:31:28;;;;;;;1.40;1.30;;;;;16.60;94917.00;;;;5034240;28;20196;-57
2023/08/01 03:33:58;;;;;;;2.03;1.53;;;;;16.70;94910.00;;;;5034364;28;20189;-57
2023/08/01 03:36:25;;;;;;;0.77;0.77;;;;;16.60;94901.00;;;;5034206;28;20209;-57
2023/08/01 03:38:54;;;;;;;1.00;1.00;;;;;16.70;94910.00;;;;5034391;28;20565;-57
2023/08/01 03:41:21;;;;;;;1.00;1.00;;;;;16.60;94907.00;;;;5034075;28;20254;-57
2023/08/01 03:43:49;;;;;;;1.23;1.23;;;;;16.50;94913.00;;;;5034130;28;20196;-65
2023/08/01 03:46:16;;;;;;;1.10;1.07;;;;;16.60;94920.00;;;;5033896;28;20221;-58
2023/08/01 03:48:47;;;;;;;0.70;0.70;;;;;16.50;94916.00;;;;5033410;28;20188;-58
2023/08/01 03:51:15;;;;;;;0.50;0.50;;;;;16.60;94920.00;;;;5034728;28;20695;-55
2023/08/01 03:53:42;;;;;;;1.00;1.00;;;;;16.70;94924.00;;;;5033850;28;20671;-58
2023/08/01 03:56:11;;;;;;;0.60;0.60;;;;;16.50;94916.00;;;;5034109;28;20213;-58
2023/08/01 03:58:38;;;;;;;0.70;0.70;;;;;16.40;94882.00;;;;5033733;28;20203;-58
2023/08/01 04:01:06;;;;;;;0.73;0.73;;;;;16.60;94895.00;;;;5033567;28;20192;-57
2023/08/01 04:03:34;;;;;;;1.10;1.10;;;;;16.60;94873.00;;;;5033779;28;20220;-58
2023/08/01 04:06:01;;;;;;;0.60;0.60;;;;;16.80;94860.00;;;;5033414;28;20691;-58
2023/08/01 04:08:29;;;;;;;0.90;0.90;;;;;16.70;94848.00;;;;5033737;28;20200;-58
2023/08/01 04:10:56;;;;;;;0.97;0.97;;;;;16.70;94843.00;;;;5033394;28;20204;-57
2023/08/01 04:13:25;;;;;;;0.70;0.70;;;;;16.70;94821.00;;;;5033475;28;20201;-57
2023/08/01 04:15:52;;;;;;;1.13;1.13;;;;;16.70;94816.00;;;;5033760;28;20703;-57
2023/08/01 04:18:19;;;;;;;0.80;0.80;;;;;16.70;94807.00;;;;5033548;28;20223;-57
2023/08/01 04:20:47;;;;;;;1.70;1.33;;;;;16.60;94775.00;;;;5033084;28;20193;-58
2023/08/01 04:23:15;;;;;;;0.90;0.90;;;;;16.60;94754.00;;;;5033376;28;20553;-58
2023/08/01 04:25:42;;;;;;;1.87;1.77;;;;;16.50;94772.00;;;;5033370;28;20223;-57
2023/08/01 04:28:10;;;;;;;0.70;0.70;;;;;16.60;94688.00;;;;5033469;28;20193;-57
2023/08/01 04:30:39;;;;;;;0.70;0.70;;;;;16.60;94712.00;;;;5033789;28;20189;-57
2023/08/01 04:33:06;;;;;;;1.00;1.00;;;;;16.50;94691.00;;;;5033532;28;20227;-57
2023/08/01 04:35:34;;;;;;;0.90;0.90;;;;;16.60;94702.00;;;;5033287;28;20200;-57
2023/08/01 04:38:01;;;;;;;2.17;0.87;;;;;16.70;94710.00;;;;5033316;28;20196;-57
2023/08/01 04:40:28;;;;;;;0.57;0.57;;;;;16.60;94699.00;;;;5033871;28;20197;-57
2023/08/01 04:42:56;;;;;;;1.00;0.93;;;;;16.60;94707.00;;;;5033331;28;20192;-57
2023/08/01 04:45:23;;;;;;;0.60;0.60;;;;;16.70;94706.00;;;;5033297;28;20209;-57
2023/08/01 04:47:52;;;;;;;0.60;0.60;;;;;16.70;94724.00;;;;5033016;28;20228;-58
2023/08/01 04:50:19;;;;;;;0.80;0.80;;;;;16.70;94732.00;;;;5031976;28;20586;-57
2023/08/01 04:52:47;;;;;;;0.60;0.60;;;;;16.60;94733.00;;;;5033619;28;20201;-57
2023/08/01 04:55:14;;;;;;;2.83;1.70;;;;;16.50;94750.00;;;;5033198;28;20239;-57
2023/08/01 04:57:42;;;;;;;0.50;0.50;;;;;16.50;94753.00;;;;5032735;28;20587;-58
2023/08/01 05:00:11;;;;;;;0.60;0.60;;;;;16.50;94746.00;;;;5034601;28;20235;-57
2023/08/01 05:02:39;;;;;;;0.83;0.83;;;;;16.60;94760.00;;;;5037357;28;20203;-57
2023/08/01 05:05:08;;;;;;;1.10;1.10;;;;;16.40;94746.00;;;;5036930;28;20221;-57
2023/08/01 05:07:36;;;;;;;0.70;0.70;;;;;16.50;94750.00;;;;5036968;28;20578;-60
2023/08/01 05:10:03;;;;;;;1.10;1.00;;;;;16.40;94738.00;;;;5035960;28;20197;-57
2023/08/01 05:12:31;;;;;;;1.53;1.43;;;;;16.50;94727.00;;;;5036788;28;20189;-57
2023/08/01 05:14:58;;;;;;;0.67;0.67;;;;;16.50;94734.00;;;;5037248;28;20246;-57
2023/08/01 05:17:26;;;;;;;0.77;0.77;;;;;16.60;94750.00;;;;5036649;28;20572;-57
2023/08/01 05:19:55;;;;;;;1.33;1.23;;;;;16.40;94752.00;;;;5036632;28;20193;-58
2023/08/01 05:22:24;;;;;;;0.80;0.80;;;;;16.50;94753.00;;;;5036637;28;20682;-57
2023/08/01 05:24:51;;;;;;;0.70;0.70;;;;;16.50;94748.00;;;;5036771;28;20251;-56
2023/08/01 05:27:19;;;;;;;0.73;0.73;;;;;16.60;94747.00;;;;5036420;28;20220;-56
2023/08/01 05:29:46;;;;;;;0.87;0.87;;;;;16.50;94750.00;;;;5036621;28;20193;-57
2023/08/01 05:32:13;;;;;;;0.67;0.67;;;;;16.60;94745.00;;;;5036488;28;20197;-58
2023/08/01 05:34:41;;;;;;;0.87;0.87;;;;;16.60;94744.00;;;;5036591;28;20220;-58
2023/08/01 05:37:08;;;;;;;0.73;0.73;;;;;16.60;94739.00;;;;5036815;28;20270;-58
2023/08/01 05:39:37;;;;;;;5.00;1.60;;;;;16.80;94728.00;;;;5036618;28;20564;-56
2023/08/01 05:42:08;;;;;;;1.13;1.13;;;;;16.90;94739.00;;;;5036677;28;20196;-56
2023/08/01 05:44:35;;;;;;;0.80;0.80;;;;;16.90;94744.00;;;;5036543;28;20643;-58
2023/08/01 05:47:03;;;;;;;0.50;0.50;;;;;17.00;94754.00;;;;5036421;28;20269;-58
2023/08/01 05:49:30;;;;;;;1.10;0.97;;;;;16.80;94752.00;;;;5036222;28;20203;-58
2023/08/01 05:51:58;;;;;;;0.70;0.70;;;;;16.90;94765.00;;;;5036457;28;20199;-58
2023/08/01 05:54:26;;;;;;;1.00;1.00;;;;;17.00;94761.00;;;;5036184;28;20664;-58
2023/08/01 05:56:56;;;;;;;0.87;0.87;;;;;16.90;94770.00;;;;5036256;28;20676;-58
2023/08/01 05:59:23;;;;;;;1.00;1.00;;;;;16.90;94789.00;;;;5031947;28;20197;-58
2023/08/01 06:01:51;;;;;;;0.97;0.97;;;;;16.90;94800.00;;;;5032569;28;20215;-60
2023/08/01 06:04:18;;;;;;;0.70;0.70;;;;;16.70;94781.00;;;;5034674;28;20205;-59
2023/08/01 06:06:46;;;;;;;1.03;1.00;;;;;16.80;94773.00;;;;5034309;28;20240;-59
2023/08/01 06:09:13;;;;;;;1.20;1.20;;;;;16.70;94784.00;;;;5033592;28;20197;-59
2023/08/01 06:11:41;;;;;;;0.67;0.67;;;;;16.80;94756.00;;;;5033917;28;20582;-58
2023/08/01 06:14:11;;;;;;;3.30;1.37;;;;;16.70;94743.00;;;;5033629;28;20797;-57
2023/08/01 06:16:38;;;;;;;1.30;1.20;;;;;16.70;94779.00;;;;5034325;28;20213;-59
2023/08/01 06:19:05;;;;;;;1.10;1.10;;;;;16.70;94767.00;;;;5033747;28;20205;-58
2023/08/01 06:21:33;;;;;;;1.87;1.77;;;;;16.80;94778.00;;;;5034405;28;20299;-58
2023/08/01 06:24:00;;;;;;;1.60;1.47;;;;;16.60;94783.00;;;;5032500;28;20204;-58
2023/08/01 06:26:28;;;;;;;0.77;0.77;;;;;16.50;94797.00;;;;5033984;28;20225;-58
2023/08/01 06:28:55;;;;;;;1.40;1.30;;;;;16.40;94791.00;;;;5034023;28;20204;-58
2023/08/01 06:31:24;;;;;;;2.03;1.87;;;;;16.40;94807.00;;;;5032846;28;20208;-58
2023/08/01 06:33:52;;;;;;;1.00;1.00;;;;;16.50;94792.00;;;;5032690;28;20208;-58
2023/08/01 06:36:19;;;;;;;2.13;2.03;;;;;16.40;94790.00;;;;5033696;28;20307;-58
2023/08/01 06:38:47;;;;;;;0.80;0.80;;;;;16.40;94798.00;;;;5033929;28;20571;-58
2023/08/01 06:41:14;;;;;;;2.03;0.70;;;;;16.30;94792.00;;;;5033561;28;20200;-58
2023/08/01 06:43:42;;;;;;;0.67;0.67;;;;;16.20;94795.00;;;;5033779;28;20220;-59
2023/08/01 06:46:09;;;;;;;1.13;1.13;;;;;16.10;94773.00;;;;5033303;28;20221;-58
2023/08/01 06:48:38;;;;;;;0.87;0.87;;;;;16.10;94780.00;;;;5033973;28;20698;-58
2023/08/01 06:51:06;;;;;;;1.33;1.33;;;;;16.30;94778.00;;;;5032987;28;20200;-59
2023/08/01 06:53:33;;;;;;;1.00;1.00;;;;;16.30;94785.00;;;;5034034;28;20211;-58
2023/08/01 06:56:00;;;;;;;1.57;1.47;;;;;16.20;94793.00;;;;5033492;28;20219;-58
2023/08/01 06:58:28;;;;;;;1.30;1.20;;;;;16.20;94803.00;;;;5033379;28;20215;-59
2023/08/01 07:00:55;;;;;;;1.33;1.33;;;;;16.20;94795.00;;;;5032065;28;20533;-59
2023/08/01 07:03:23;;;;;;;1.00;1.00;;;;;16.00;94806.00;;;;5033269;28;20199;-58
2023/08/01 07:05:52;;;;;;;1.00;1.00;;;;;15.80;94788.00;;;;5032778;28;20243;-58
2023/08/01 07:08:21;;;;;;;1.20;1.10;;;;;15.80;94791.00;;;;5032388;28;20204;-58
2023/08/01 07:10:48;;;;;;;0.83;0.83;;;;;15.80;94797.00;;;;5031643;28;20204;-58
2023/08/01 07:13:16;;;;;;;1.87;1.20;;;;;15.80;94791.00;;;;5033362;28;20551;-58
2023/08/01 07:15:44;;;;;;;0.87;0.87;;;;;15.70;94797.00;;;;5033073;28;20260;-58
2023/08/01 07:18:11;;;;;;;1.07;1.07;;;;;15.80;94804.00;;;;5032641;28;20193;-58
2023/08/01 07:20:39;;;;;;;1.87;1.77;;;;;15.70;94801.00;;;;5033370;28;20220;-57
2023/08/01 07:23:07;;;;;;;1.63;1.53;;;;;15.60;94826.00;;;;5030446;28;20197;-58
2023/08/01 07:25:35;;;;;;;1.20;0.87;;;;;15.50;94798.00;;;;5033376;28;20208;-59
2023/08/01 07:28:02;;;;;;;1.03;1.03;;;;;15.30;94783.00;;;;5033175;28;20196;-57
2023/08/01 07:30:30;;;;;;;0.80;0.80;;;;;15.30;94802.00;;;;5033334;28;20224;-57
2023/08/01 07:32:57;;;;;;;0.60;0.60;;;;;15.40;94804.00;;;;5032936;28;20196;-58
2023/08/01 07:35:25;;;;;;;0.50;0.50;;;;;15.40;94798.00;;;;5028563;28;20730;-58
2023/08/01 07:37:52;;;;;;;1.13;1.13;;;;;15.40;94803.00;;;;5033126;28;20296;-57
2023/08/01 07:40:21;;;;;;;0.60;0.57;;;;;15.50;94799.00;;;;5033160;28;20197;-57
2023/08/01 07:42:49;;;;;;;8.10;1.47;;;;;15.60;94794.00;;;;5033044;28;20197;-57
2023/08/01 07:45:16;;;;;;;0.73;0.73;;;;;15.80;94797.00;;;;5031569;28;20196;-58
2023/08/01 07:47:44;;;;;;;0.90;0.90;;;;;15.70;94794.00;;;;5032139;28;20606;-57
2023/08/01 07:50:11;;;;;;;0.63;0.63;;;;;15.50;94803.00;;;;5032220;28;20672;-58
2023/08/01 07:52:39;;;;;;;0.60;0.60;;;;;15.70;94798.00;;;;5031879;28;20204;-57
2023/08/01 07:55:07;;;;;;;1.00;1.00;;;;;15.80;94802.00;;;;5032593;28;20208;-58
2023/08/01 07:57:36;;;;;;;0.90;0.90;;;;;15.80;94788.00;;;;5031576;28;20243;-59
2023/08/01 08:00:05;;;;;;;0.60;0.60;;;;;16.00;94781.00;;;;5032425;28;20200;-58
2023/08/01 08:02:32;;;;;;;0.50;0.50;;;;;15.90;94799.00;;;;5031720;28;20200;-58
2023/08/01 08:05:00;;;;;;;1.27;1.20;;;;;15.80;94797.00;;;;5032445;28;20278;-58
2023/08/01 08:07:27;;;;;;;0.60;0.60;;;;;15.80;94794.00;;;;5031819;28;20224;-58
2023/08/01 08:09:55;;;;;;;0.80;0.80;;;;;15.70;94788.00;;;;5032698;28;20287;-58
2023/08/01 08:12:23;;;;;;;0.50;0.50;;;;;15.80;94786.00;;;;5030420;28;20678;-58
2023/08/01 08:14:52;;;;;;;0.87;0.87;;;;;15.80;94792.00;;;;5032211;28;20551;-58
2023/08/01 08:17:20;;;;;;;0.53;0.53;;;;;15.70;94791.00;;;;5031639;28;20217;-57
2023/08/01 08:19:48;;;;;;;0.70;0.70;;;;;15.90;94791.00;;;;5030644;28;20212;-58
2023/08/01 08:22:15;;;;;;;0.60;0.60;;;;;16.00;94799.00;;;;5031801;28;20196;-58
2023/08/01 08:24:43;;;;;;;0.70;0.70;;;;;16.00;94805.00;;;;5031597;28;20196;-58
2023/08/01 08:27:10;;;;;;;0.60;0.60;;;;;15.90;94809.00;;;;5031719;28;20224;-58
2023/08/01 08:29:38;;;;;;;0.50;0.50;;;;;16.10;94794.00;;;;5030561;28;20567;-58
2023/08/01 08:32:08;;;;;;;0.87;0.87;;;;;16.00;94805.00;;;;5031570;28;20622;-58
2023/08/01 08:34:35;;;;;;;0.40;0.40;;;;;15.90;94808.00;;;;5031304;28;20209;-58
2023/08/01 08:37:03;;;;;;;0.67;0.67;;;;;15.80;94819.00;;;;5031584;28;20224;-58
2023/08/01 08:39:31;;;;;;;0.43;0.43;;;;;16.00;94799.00;;;;5031799;28;20216;-58
2023/08/01 08:41:58;;;;;;;1.07;1.07;;;;;16.10;94800.00;;;;5030190;28;20762;-58
2023/08/01 08:44:29;;;;;;;0.53;0.53;;;;;16.40;94811.00;;;;5031576;28;20212;-58
2023/08/01 08:46:59;;;;;;;0.43;0.43;;;;;16.50;94803.00;;;;5031608;28;20294;-58
2023/08/01 08:49:29;;;;;;;0.50;0.50;;;;;16.60;94799.00;;;;5031549;28;20710;-58
2023/08/01 08:51:57;;;;;;;0.50;0.50;;;;;16.50;94808.00;;;;5031678;28;20201;-59
2023/08/01 08:54:25;;;;;;;0.53;0.53;;;;;16.20;94805.00;;;;5031072;28;20223;-58
2023/08/01 08:56:53;;;;;;;0.77;0.77;;;;;16.20;94811.00;;;;5032096;28;20209;-58
2023/08/01 08:59:21;;;;;;;0.50;0.50;;;;;16.10;94810.00;;;;5031082;28;20189;-59
2023/08/01 09:01:49;;;;;;;0.40;0.40;;;;;16.10;94806.00;;;;5031768;28;20193;-57
2023/08/01 09:04:17;;;;;;;0.73;0.73;;;;;16.20;94813.00;;;;5029913;28;20296;-57
2023/08/01 09:06:49;;;;;;;0.50;0.50;;;;;16.20;94819.00;;;;5030441;28;20231;-58
2023/08/01 09:09:18;;;;;;;0.60;0.60;;;;;16.20;94820.00;;;;5031530;28;20189;-57
2023/08/01 09:11:47;;;;;;;0.70;0.70;;;;;16.20;94805.00;;;;5032119;28;20234;-57
2023/08/01 09:14:16;;;;;;;0.40;0.40;;;;;16.20;94798.00;;;;5026671;28;20208;-56
2023/08/01 09:16:44;;;;;;;0.40;0.40;;;;;16.10;94812.00;;;;5031704;28;20244;-56
2023/08/01 09:19:13;;;;;;;0.50;0.50;;;;;15.90;94811.00;;;;5030882;28;20201;-57
2023/08/01 09:21:40;;;;;;;0.50;0.50;;;;;16.10;94825.00;;;;5031965;28;20200;-57
2023/08/01 09:24:14;;;;;;;0.57;0.57;;;;;16.30;94829.00;;;;5030891;28;20211;-57
2023/08/01 09:26:42;;;;;;;0.50;0.50;;;;;16.30;94829.00;;;;5031694;28;20231;-60
2023/08/01 09:29:10;;;;;;;0.40;0.40;;;;;16.40;94824.00;;;;5031244;28;20203;-57
2023/08/01 09:31:39;;;;;;;0.60;0.60;;;;;16.70;94830.00;;;;5031206;28;20626;-57
2023/08/01 09:34:19;;;;;;;0.50;0.50;;;;;16.90;94818.00;;;;5030738;28;20207;-57
2023/08/01 09:36:46;;;;;;;0.40;0.40;;;;;17.00;94835.00;;;;5030657;28;20495;-57
2023/08/01 09:39:19;;;;;;;1.90;0.77;;;;;16.90;94827.00;;;;5030437;28;20203;-57
2023/08/01 09:41:47;;;;;;;0.50;0.50;;;;;17.00;94837.00;;;;5031484;28;20231;-57
2023/08/01 09:44:17;;;;;;;0.50;0.50;;;;;16.80;94852.00;;;;5031042;28;20201;-57
2023/08/01 09:46:45;;;;;;;0.60;0.60;;;;;16.80;94840.00;;;;5026033;28;20565;-57
2023/08/01 09:49:13;;;;;;;0.40;0.40;;;;;16.80;94831.00;;;;5034858;28;20663;-57
2023/08/01 09:51:50;;;;;;;0.40;0.40;;;;;16.80;94843.00;;;;5034577;28;20200;-58
2023/08/01 09:54:21;;;;;;;0.60;0.60;;;;;16.70;94837.00;;;;5035062;28;20199;-57
2023/08/01 09:56:50;;;;;;;0.40;0.40;;;;;17.00;94836.00;;;;5034636;28;20216;-58
2023/08/01 09:59:21;;;;;;;0.60;0.60;;;;;16.80;94843.00;;;;5034473;28;20253;-57
2023/08/01 10:01:51;;;;;;;0.50;0.50;;;;;17.00;94837.00;;;;5034072;28;20280;-61
2023/08/01 10:04:21;;;;;;;1.90;0.50;;;;;17.10;94830.00;;;;5035014;28;20209;-57
2023/08/01 10:06:55;;;;;;;0.30;0.30;;;;;17.10;94836.00;;;;5033844;28;20337;-57
2023/08/01 10:09:24;;;;;;;0.40;0.40;;;;;17.10;94842.00;;;;5033001;28;20267;-57
2023/08/01 10:11:52;;;;;;;0.70;0.70;;;;;17.20;94844.00;;;;5034206;28;20201;-57
2023/08/01 10:14:20;;;;;;;0.50;0.50;;;;;17.10;94860.00;;;;5034565;28;20208;-57
2023/08/01 10:16:48;;;;;;;0.40;0.40;;;;;17.10;94850.00;;;;5034340;28;20718;-59
2023/08/01 10:19:16;;;;;;;0.50;0.50;;;;;17.30;94854.00;;;;5034483;28;20614;-58
2023/08/01 10:21:44;;;;;;;0.60;0.60;;;;;17.80;94839.00;;;;5033813;28;20196;-57
2023/08/01 10:24:13;;;;;;;0.40;0.40;;;;;18.20;94838.00;;;;5034274;28;20200;-58
2023/08/01 10:26:45;;;;;;;0.30;0.30;;;;;18.20;94848.00;;;;5033342;28;20213;-58
2023/08/01 10:29:12;;;;;;;0.50;0.50;;;;;18.20;94845.00;;;;5033190;28;20201;-58
2023/08/01 10:31:40;;;;;;;0.40;0.40;;;;;18.20;94858.00;;;;5032559;28;20219;-59
2023/08/01 10:34:13;;;;;;;0.50;0.50;;;;;18.10;94863.00;;;;5033932;28;20679;-58
2023/08/01 10:36:40;;;;;;;1.50;0.83;;;;;18.10;94869.00;;;;5033080;28;20223;-58
2023/08/01 10:39:08;;;;;;;0.43;0.43;;;;;18.10;94865.00;;;;5034258;28;20189;-59
2023/08/01 10:41:36;;;;;;;0.60;0.60;;;;;18.30;94873.00;;;;5032055;28;20212;-58
2023/08/01 10:44:10;;;;;;;0.50;0.50;;;;;18.30;94871.00;;;;5033898;28;20236;-57
2023/08/01 10:46:48;;;;;;;0.50;0.50;;;;;17.90;94887.00;;;;5032025;28;20224;-57
2023/08/01 10:49:16;;;;;;;0.40;0.40;;;;;17.90;94896.00;;;;5033938;28;20270;-58
2023/08/01 10:51:44;;;;;;;0.43;0.43;;;;;17.80;94882.00;;;;5033752;28;20216;-57
2023/08/01 10:54:22;;;;;;;0.60;0.60;;;;;17.60;94871.00;;;;5032901;28;20193;-57
2023/08/01 10:56:51;;;;;;;0.60;0.60;;;;;18.00;94886.00;;;;5033233;28;20223;-57
2023/08/01 10:59:21;;;;;;;0.50;0.50;;;;;17.70;94900.00;;;;5033431;28;20200;-57
2023/08/01 11:01:50;;;;;;;0.50;0.50;;;;;17.80;94889.00;;;;5033060;28;20197;-58
2023/08/01 11:04:19;;;;;;;0.53;0.53;;;;;18.40;94892.00;;;;5033286;28;20193;-58
2023/08/01 11:06:48;;;;;;;0.63;0.63;;;;;18.10;94905.00;;;;5033453;28;20711;-58
2023/08/01 11:09:20;;;;;;;0.93;0.93;;;;;18.10;94882.00;;;;5031384;28;20566;-57
2023/08/01 11:11:51;;;;;;;0.70;0.70;;;;;18.20;94886.00;;;;5033397;28;20199;-58
2023/08/01 11:14:23;;;;;;;0.93;0.90;;;;;18.40;94890.00;;;;5031371;28;20387;-59
2023/08/01 11:16:51;;;;;;;0.50;0.50;;;;;18.70;94880.00;;;;5032113;28;20774;-57
2023/08/01 11:19:23;;;;;;;0.37;0.37;;;;;18.60;94910.00;;;;5032959;28;20272;-57
2023/08/01 11:21:52;;;;;;;0.50;0.50;;;;;18.50;94910.00;;;;5032649;28;20197;-58
2023/08/01 11:24:20;;;;;;;0.80;0.80;;;;;18.50;94889.00;;;;5032883;28;20251;-57
2023/08/01 11:26:49;;;;;;;0.70;0.70;;;;;18.70;94872.00;;;;5032998;28;20275;-58
2023/08/01 11:29:17;;;;;;;0.40;0.40;;;;;18.60;94906.00;;;;5028075;28;20220;-58
2023/08/01 11:31:55;;;;;;;0.40;0.40;;;;;18.60;94892.00;;;;5028251;28;20207;-58
2023/08/01 11:34:23;;;;;;;0.50;0.50;;;;;18.60;94890.00;;;;5029299;28;20200;-59
2023/08/01 11:36:51;;;;;;;0.50;0.50;;;;;18.40;94896.00;;;;5032542;28;20244;-57
2023/08/01 11:39:20;;;;;;;0.50;0.50;;;;;18.90;94895.00;;;;5033342;28;20208;-58
2023/08/01 11:41:47;;;;;;;0.50;0.50;;;;;18.70;94904.00;;;;5032161;28;20201;-57
2023/08/01 11:44:15;;;;;;;0.50;0.50;;;;;18.80;94894.00;;;;5032695;28;20668;-58
2023/08/01 11:46:44;;;;;;;0.50;0.50;;;;;19.10;94881.00;;;;5032198;28;20224;-57
2023/08/01 11:49:15;;;;;;;3.93;1.10;;;;;19.50;94899.00;;;;5032560;28;20213;-57
2023/08/01 11:51:45;;;;;;;0.70;0.70;;;;;19.50;94875.00;;;;5032053;28;20197;-57
2023/08/01 11:54:13;;;;;;;0.50;0.50;;;;;19.40;94895.00;;;;5032395;28;20582;-58
2023/08/01 11:56:42;;;;;;;0.73;0.73;;;;;19.40;94893.00;;;;5031610;28;20224;-57
2023/08/01 11:59:10;;;;;;;0.40;0.40;;;;;19.80;94892.00;;;;5031494;28;20201;-57
2023/08/01 12:01:42;;;;;;;0.70;0.70;;;;;19.30;94886.00;;;;5032016;28;20200;-59
2023/08/01 12:04:11;;;;;;;0.43;0.43;;;;;19.30;94903.00;;;;5031813;28;20212;-58
2023/08/01 12:06:40;;;;;;;0.30;0.30;;;;;19.20;94888.00;;;;5030763;28;20221;-58
2023/08/01 12:09:10;;;;;;;0.57;0.57;;;;;19.20;94932.00;;;;5031866;28;20300;-58
2023/08/01 12:11:38;;;;;;;1.13;0.97;;;;;19.30;94893.00;;;;5032086;28;20197;-57
2023/08/01 12:14:09;;;;;;;0.50;0.50;;;;;19.40;94921.00;;;;5032336;28;20199;-58
2023/08/01 12:16:37;;;;;;;0.60;0.60;;;;;19.50;94912.00;;;;5031506;28;20217;-58
2023/08/01 12:19:05;;;;;;;0.50;0.50;;;;;19.70;94903.00;;;;5031995;28;20196;-58
2023/08/01 12:21:35;;;;;;;0.53;0.53;;;;;19.70;94956.00;;;;5031196;28;20567;-58
2023/08/01 12:24:02;;;;;;;0.60;0.60;;;;;19.60;94946.00;;;;5031240;28;20292;-57